Time;durP1;ratioP1;P1;durP2;ratioP2;P2;SDS_P1;SDS_P2;PMS_P1;PMS_P2;Temp;Humidity;BMP_temperature;BMP_pressure;BME280_temperature;BME280_humidity;BME280_pressure;Samples;Min_cycle;Max_cycle;Signal;HPM_P1;HPM_P2
2022/07/27 00:02:45;;;;;;;5.00;2.20;;;;;;;15.93;80.42;99205.38;8460249;28;20546;-80
2022/07/27 00:06:45;;;;;;;3.95;2.40;;;;;;;15.83;81.02;99211.25;8460353;28;20041;-82
2022/07/27 00:10:47;;;;;;;4.65;2.42;;;;;;;15.75;80.97;99204.03;8395276;28;20051;-81
2022/07/27 00:14:47;;;;;;;4.53;2.35;;;;;;;15.72;80.97;99199.22;8460085;28;20099;-81
2022/07/27 00:18:48;;;;;;;4.15;2.40;;;;;;;15.65;81.47;99188.13;8423487;28;20552;-81
2022/07/27 00:22:49;;;;;;;5.82;2.40;;;;;;;15.61;81.72;99194.25;8453938;28;20040;-80
2022/07/27 00:26:50;;;;;;;3.65;2.33;;;;;;;15.53;81.61;99197.88;8455861;28;20079;-81
2022/07/27 00:30:51;;;;;;;4.50;2.47;;;;;;;15.45;81.58;99206.91;8433727;28;20427;-81
2022/07/27 00:34:52;;;;;;;4.70;2.58;;;;;;;15.42;81.80;99202.13;8451738;28;20047;-81
2022/07/27 00:38:53;;;;;;;5.80;2.42;;;;;;;15.36;81.70;99214.38;8409354;28;20511;-81
2022/07/27 00:42:54;;;;;;;2.90;2.20;;;;;;;15.27;81.88;99213.69;8430498;28;20131;-81
2022/07/27 00:46:56;;;;;;;4.80;2.35;;;;;;;15.20;81.80;99210.72;8455503;28;20051;-81
2022/07/27 00:50:58;;;;;;;3.42;2.20;;;;;;;15.12;81.60;99214.31;8459319;28;20044;-81
2022/07/27 00:54:58;;;;;;;6.72;2.05;;;;;;;15.01;81.73;99224.84;8465330;27;20051;-79
2022/07/27 00:59:00;;;;;;;2.17;1.80;;;;;;;14.94;81.75;99224.56;8465370;28;20046;-80
2022/07/27 01:03:01;;;;;;;2.30;2.05;;;;;;;14.87;81.56;99223.50;8461700;28;20126;-81
2022/07/27 01:07:03;;;;;;;2.80;1.83;;;;;;;14.79;81.64;99223.28;8465196;28;20067;-81
2022/07/27 01:11:04;;;;;;;4.50;2.17;;;;;;;14.70;81.64;99225.25;8429645;28;20092;-81
2022/07/27 01:15:06;;;;;;;3.15;2.25;;;;;;;14.66;81.76;99235.19;8464875;28;20442;-80
2022/07/27 01:19:08;;;;;;;4.20;2.10;;;;;;;14.61;81.63;99238.13;8463978;28;20051;-80
2022/07/27 01:23:10;;;;;;;5.82;2.33;;;;;;;14.55;81.70;99244.88;8464454;28;20468;-81
2022/07/27 01:27:11;;;;;;;5.55;2.22;;;;;;;14.48;81.95;99233.75;8464777;28;20044;-81
2022/07/27 01:31:12;;;;;;;5.60;2.83;;;;;;;14.47;81.99;99243.03;8464735;28;20488;-81
2022/07/27 01:35:12;;;;;;;5.40;2.53;;;;;;;14.48;82.00;99239.19;8463914;28;20076;-82
2022/07/27 01:39:15;;;;;;;6.32;2.97;;;;;;;14.52;82.01;99234.69;8463949;28;20043;-81
2022/07/27 01:43:16;;;;;;;5.15;2.97;;;;;;;14.54;82.25;99235.13;8463739;28;20372;-81
2022/07/27 01:47:17;;;;;;;3.75;2.67;;;;;;;14.59;82.50;99234.94;8463691;28;20056;-80
2022/07/27 01:51:18;;;;;;;7.93;3.13;;;;;;;14.62;82.45;99238.91;8457848;28;20050;-81
2022/07/27 01:55:19;;;;;;;3.42;2.42;;;;;;;14.58;82.06;99233.34;8439281;28;20511;-81
2022/07/27 01:59:19;;;;;;;2.92;2.20;;;;;;;14.43;82.23;99236.69;8463112;28;20096;-81
2022/07/27 02:03:20;;;;;;;3.88;2.60;;;;;;;14.27;82.54;99239.16;8430753;28;20043;-81
2022/07/27 02:07:21;;;;;;;6.72;2.50;;;;;;;14.24;82.50;99233.56;8463200;28;20040;-81
2022/07/27 02:15:41;;;;;;;4.68;2.50;;;;;;;14.20;82.64;99243.50;8443209;28;20130;-80
2022/07/27 02:19:42;;;;;;;9.48;3.05;;;;;;;14.16;82.72;99232.50;8463251;28;20133;-81
2022/07/27 02:23:44;;;;;;;3.05;2.25;;;;;;;14.21;82.66;99245.09;8448562;28;20138;-80
2022/07/27 02:27:45;;;;;;;7.13;3.63;;;;;;;14.23;83.01;99242.81;8462949;28;20057;-81
2022/07/27 02:31:46;;;;;;;4.13;3.13;;;;;;;14.26;82.97;99242.19;8462570;28;20051;-81
2022/07/27 02:35:47;;;;;;;4.43;2.90;;;;;;;14.27;82.55;99238.34;8420166;28;20126;-80
2022/07/27 02:39:48;;;;;;;4.50;3.30;;;;;;;14.27;82.90;99238.34;8447783;28;20408;-81
2022/07/27 02:43:49;;;;;;;4.47;2.85;;;;;;;14.28;83.19;99250.78;8419108;28;20052;-81
2022/07/27 02:47:50;;;;;;;3.83;2.60;;;;;;;14.25;83.12;99262.31;8461711;28;20055;-81
2022/07/27 02:51:53;;;;;;;4.45;2.80;;;;;;;14.25;83.21;99262.31;8409587;28;20058;-81
2022/07/27 02:55:54;;;;;;;5.65;2.90;;;;;;;14.24;82.95;99255.28;8450001;28;20050;-81
2022/07/27 02:59:55;;;;;;;3.85;3.05;;;;;;;14.25;83.13;99251.44;8415799;28;20056;-82
2022/07/27 03:03:55;;;;;;;7.30;3.17;;;;;;;14.25;83.30;99251.44;8461010;28;20050;-81
2022/07/27 03:07:57;;;;;;;4.10;3.20;;;;;;;14.26;83.52;99253.84;8459586;28;20622;-81
2022/07/27 03:11:57;;;;;;;4.70;3.40;;;;;;;14.34;83.59;99244.03;8461227;28;20060;-82
2022/07/27 03:15:58;;;;;;;5.68;3.75;;;;;;;14.42;83.96;99243.22;8444291;28;20036;-82
2022/07/27 03:19:59;;;;;;;9.73;4.40;;;;;;;14.49;83.89;99251.63;8458702;28;20063;-82
2022/07/27 03:24:00;;;;;;;6.57;4.45;;;;;;;14.60;84.25;99252.03;8420263;28;20177;-80
2022/07/27 03:28:01;;;;;;;5.97;3.70;;;;;;;14.67;83.96;99261.25;8458371;28;20483;-81
2022/07/27 03:32:02;;;;;;;8.73;4.05;;;;;;;14.60;84.54;99260.19;8448952;28;20077;-81
2022/07/27 03:36:03;;;;;;;11.27;4.20;;;;;;;14.55;84.83;99255.75;8456815;28;20085;-81
2022/07/27 03:40:05;;;;;;;7.43;5.35;;;;;;;14.59;84.79;99261.34;8457731;28;20093;-81
2022/07/27 03:44:06;;;;;;;9.10;5.93;;;;;;;14.65;85.25;99254.56;8456284;28;20044;-81
2022/07/27 03:48:07;;;;;;;7.28;4.82;;;;;;;14.76;85.17;99251.09;8440692;28;20411;-81
2022/07/27 03:52:08;;;;;;;6.80;4.57;;;;;;;14.88;85.77;99252.28;8433712;28;20124;-80
2022/07/27 03:56:09;;;;;;;5.60;5.00;;;;;;;14.97;85.61;99255.72;8438957;28;20040;-81
2022/07/27 04:00:14;;;;;;;9.20;5.50;;;;;;;15.05;85.82;99243.97;8461527;28;20075;-80
2022/07/27 04:04:15;;;;;;;7.50;6.03;;;;;;;15.13;86.09;99248.53;8461528;28;20047;-81
2022/07/27 04:08:16;;;;;;;9.25;6.43;;;;;;;15.26;86.14;99258.34;8447261;28;20044;-81
2022/07/27 04:12:17;;;;;;;9.38;5.30;;;;;;;15.44;86.10;99253.53;8457113;28;20048;-81
2022/07/27 04:16:18;;;;;;;9.15;4.10;;;;;;;15.53;86.47;99257.75;8465634;28;20053;-83
2022/07/27 04:20:19;;;;;;;8.93;4.45;;;;;;;15.58;86.46;99254.81;8440158;28;20047;-81
2022/07/27 04:24:20;;;;;;;10.50;4.90;;;;;;;15.63;86.82;99241.00;8462646;28;20078;-81
2022/07/27 04:28:21;;;;;;;10.07;6.25;;;;;;;15.63;88.29;99235.53;8466699;28;20051;-81
2022/07/27 04:32:22;;;;;;;8.88;6.65;;;;;;;15.68;88.35;99231.00;8452690;28;20085;-81
2022/07/27 04:36:23;;;;;;;9.98;6.95;;;;;;;15.72;88.64;99237.34;8425699;28;20059;-81
2022/07/27 04:40:24;;;;;;;9.38;6.32;;;;;;;15.77;89.33;99250.75;8457534;28;20101;-82
2022/07/27 04:44:25;;;;;;;9.38;6.63;;;;;;;15.79;89.58;99248.50;8452115;28;20044;-81
2022/07/27 04:48:26;;;;;;;10.80;6.97;;;;;;;15.82;89.47;99236.91;8459901;28;20051;-81
2022/07/27 04:52:27;;;;;;;11.45;6.80;;;;;;;16.00;89.46;99227.38;8458271;28;20395;-81
2022/07/27 04:56:28;;;;;;;9.07;6.93;;;;;;;16.24;88.71;99238.25;8449410;28;20044;-81
2022/07/27 05:00:29;;;;;;;10.98;6.95;;;;;;;16.42;88.44;99234.16;8458877;28;20474;-81
2022/07/27 05:04:30;;;;;;;11.68;7.45;;;;;;;16.47;88.70;99230.38;8465879;28;20048;-82
2022/07/27 05:08:31;;;;;;;10.20;7.63;;;;;;;16.45;88.43;99232.66;8466569;28;20051;-81
2022/07/27 05:12:31;;;;;;;9.93;6.85;;;;;;;16.37;89.04;99215.31;8451315;28;20134;-81
2022/07/27 05:16:32;;;;;;;9.43;6.70;;;;;;;16.37;89.13;99226.19;8465654;28;20061;-81
2022/07/27 05:20:33;;;;;;;13.77;7.88;;;;;;;16.53;89.87;99244.56;8465836;28;20043;-81
2022/07/27 05:24:34;;;;;;;9.82;6.60;;;;;;;16.74;90.44;99264.31;8465501;28;20047;-81
2022/07/27 05:28:35;;;;;;;9.32;6.40;;;;;;;17.01;90.21;99266.28;8465252;28;20051;-81
2022/07/27 05:32:36;;;;;;;10.63;6.75;;;;;;;17.20;89.93;99268.34;8411534;28;20427;-82
2022/07/27 05:36:37;;;;;;;8.02;5.82;;;;;;;17.33;89.92;99271.81;8412168;28;20131;-81
2022/07/27 05:40:39;;;;;;;13.70;5.68;;;;;;;17.51;89.30;99267.59;8464771;28;20043;-81
2022/07/27 05:44:40;;;;;;;10.75;5.50;;;;;;;17.60;89.03;99276.47;8464483;28;20104;-80
2022/07/27 05:48:41;;;;;;;9.25;5.13;;;;;;;17.68;88.36;99267.31;8455849;28;20500;-81
2022/07/27 05:52:43;;;;;;;9.02;5.18;;;;;;;17.71;88.60;99264.66;8458041;28;20050;-82
2022/07/27 05:56:44;;;;;;;8.73;5.38;;;;;;;17.78;88.54;99266.78;8424198;28;20048;-80
2022/07/27 06:00:45;;;;;;;10.27;5.70;;;;;;;17.84;87.77;99265.38;8389774;28;20087;-81
2022/07/27 06:04:46;;;;;;;7.65;5.07;;;;;;;17.94;87.58;99269.50;8442373;28;20457;-82
2022/07/27 06:08:47;;;;;;;7.70;5.28;;;;;;;17.98;87.37;99293.03;8398164;28;20048;-84
2022/07/27 06:12:48;;;;;;;11.77;5.03;;;;;;;18.00;87.16;99290.75;8439973;28;20060;-83
2022/07/27 06:16:49;;;;;;;6.45;4.20;;;;;;;18.06;86.55;99300.28;8420357;28;20066;-80
2022/07/27 06:20:50;;;;;;;8.93;4.65;;;;;;;18.12;86.45;99296.13;8448395;28;20046;-80
2022/07/27 06:24:51;;;;;;;6.65;4.20;;;;;;;18.25;86.04;99282.34;8437504;28;20142;-81
2022/07/27 06:28:57;;;;;;;7.70;4.03;;;;;;;18.29;85.82;99285.97;8427073;28;20051;-81
2022/07/27 06:32:58;;;;;;;6.57;4.20;;;;;;;18.37;85.22;99282.25;8447985;28;20044;-80
2022/07/27 06:36:59;;;;;;;8.43;3.63;;;;;;;18.44;84.55;99293.34;8434541;28;20040;-80
2022/07/27 06:41:00;;;;;;;5.20;3.90;;;;;;;18.53;83.84;99291.22;8428704;28;20089;-81
2022/07/27 06:45:01;;;;;;;8.23;3.70;;;;;;;18.62;83.50;99291.81;8431959;28;20398;-82
2022/07/27 06:49:02;;;;;;;8.13;3.58;;;;;;;18.70;82.76;99296.31;8449782;28;20055;-81
2022/07/27 06:53:03;;;;;;;7.43;3.10;;;;;;;18.76;81.98;99289.41;8418952;28;20048;-81
2022/07/27 06:57:04;;;;;;;9.60;3.58;;;;;;;18.77;81.75;99290.97;8428738;28;20133;-80
2022/07/27 07:01:05;;;;;;;9.25;4.13;;;;;;;18.60;81.77;99293.34;8453877;28;20101;-80
2022/07/27 07:05:06;;;;;;;8.77;3.30;;;;;;;18.48;82.59;99299.69;8409313;28;20044;-81
2022/07/27 07:09:07;;;;;;;6.50;3.28;;;;;;;18.55;82.41;99313.56;8447854;28;20162;-81
2022/07/27 07:13:09;;;;;;;3.38;2.50;;;;;;;18.79;81.32;99310.56;8443994;28;20047;-81
2022/07/27 07:17:10;;;;;;;5.38;3.08;;;;;;;18.86;80.10;99310.75;8409663;28;20418;-81
2022/07/27 07:21:11;;;;;;;11.40;3.67;;;;;;;18.85;80.11;99314.63;8461731;28;20047;-81
2022/07/27 07:25:12;;;;;;;5.45;3.10;;;;;;;18.90;79.40;99306.13;8461668;28;20395;-80
2022/07/27 07:29:13;;;;;;;6.93;3.90;;;;;;;18.93;77.50;99316.34;8461662;28;20079;-81
2022/07/27 07:33:14;;;;;;;8.25;3.53;;;;;;;19.01;77.42;99300.09;8461653;28;20411;-80
2022/07/27 07:37:16;;;;;;;6.20;2.88;;;;;;;19.08;77.03;99294.75;8447909;28;20056;-80
2022/07/27 07:41:17;;;;;;;4.47;3.13;;;;;;;19.21;76.83;99298.91;8450593;28;20040;-80
2022/07/27 07:45:19;;;;;;;9.90;2.97;;;;;;;19.43;76.09;99311.88;8442187;28;20143;-82
2022/07/27 07:49:21;;;;;;;6.40;3.13;;;;;;;19.68;74.73;99310.41;8402246;28;20043;-80
2022/07/27 07:53:23;;;;;;;5.80;2.53;;;;;;;19.77;73.96;99313.72;8439269;28;20055;-80
2022/07/27 07:57:24;;;;;;;5.90;2.30;;;;;;;19.58;73.89;99308.28;8440619;28;20048;-82
2022/07/27 08:01:26;;;;;;;10.50;2.30;;;;;;;19.23;74.33;99308.38;8460419;27;20405;-81
2022/07/27 08:05:27;;;;;;;4.53;2.05;;;;;;;19.29;75.01;99308.88;8442701;28;20453;-79
2022/07/27 08:09:30;;;;;;;11.65;2.10;;;;;;;19.40;74.29;99315.34;8453517;28;20043;-80
2022/07/27 08:13:31;;;;;;;4.93;2.50;;;;;;;19.46;73.83;99305.69;8440675;28;20069;-80
2022/07/27 08:17:32;;;;;;;6.20;2.90;;;;;;;19.38;73.19;99312.19;8419660;28;20498;-80
2022/07/27 08:21:33;;;;;;;4.10;2.65;;;;;;;19.28;73.08;99320.97;8458441;28;20066;-81
2022/07/27 08:25:34;;;;;;;7.75;2.33;;;;;;;19.28;73.79;99315.50;8453806;28;20058;-80
2022/07/27 08:29:35;;;;;;;5.72;2.70;;;;;;;19.41;73.99;99325.13;8455841;28;20044;-80
2022/07/27 08:33:36;;;;;;;5.60;3.42;;;;;;;19.79;72.92;99325.09;8421785;28;20113;-81
2022/07/27 08:37:37;;;;;;;7.80;2.70;;;;;;;19.95;71.99;99318.72;8420978;28;20418;-81
2022/07/27 08:41:41;;;;;;;6.20;3.05;;;;;;;19.88;71.85;99321.34;8454680;27;20138;-81
2022/07/27 08:45:44;;;;;;;6.63;2.63;;;;;;;19.79;71.54;99319.63;8435743;28;20054;-80
2022/07/27 08:49:45;;;;;;;5.97;2.45;;;;;;;19.81;71.90;99325.53;8457046;28;20581;-80
2022/07/27 08:53:47;;;;;;;7.35;2.70;;;;;;;19.75;71.84;99321.53;8456741;28;20614;-80
2022/07/27 08:57:48;;;;;;;5.57;2.60;;;;;;;19.65;72.20;99329.53;8406356;28;20068;-80
2022/07/27 09:01:50;;;;;;;6.40;2.85;;;;;;;19.53;72.54;99322.28;8449739;28;20513;-80
2022/07/27 09:05:54;;;;;;;4.05;3.13;;;;;;;19.52;72.19;99337.13;8400989;28;20078;-80
2022/07/27 09:09:56;;;;;;;9.82;3.13;;;;;;;19.63;71.50;99332.63;8428887;28;20075;-81
2022/07/27 09:14:08;;;;;;;6.85;3.38;;;;;;;19.74;70.80;99339.09;8458462;28;20059;-80
2022/07/27 09:18:21;;;;;;;7.03;3.28;;;;;;;19.97;69.37;99335.59;8448194;28;20067;-81
2022/07/27 09:22:43;;;;;;;9.55;4.45;;;;;;;20.25;68.35;99336.06;8452758;28;20047;-80
2022/07/27 09:26:44;;;;;;;8.70;4.07;;;;;;;20.24;67.09;99337.25;8450932;28;20032;-81
2022/07/27 09:30:46;;;;;;;10.95;4.57;;;;;;;20.59;67.21;99332.31;8458534;27;20054;-80
2022/07/27 09:34:48;;;;;;;10.32;4.50;;;;;;;20.78;65.46;99325.16;8391060;28;20483;-81
2022/07/27 09:39:05;;;;;;;10.60;4.13;;;;;;;21.22;63.96;99328.09;8431824;28;20046;-80
2022/07/27 09:43:11;;;;;;;6.63;3.13;;;;;;;21.14;61.67;99332.72;8460040;28;20040;-81
2022/07/27 09:47:26;;;;;;;8.98;3.38;;;;;;;21.10;62.24;99331.84;8428860;27;20049;-81
2022/07/27 09:51:27;;;;;;;8.13;3.40;;;;;;;21.16;60.35;99335.06;8435287;28;20048;-79
2022/07/27 09:55:28;;;;;;;5.85;3.67;;;;;;;21.16;59.72;99335.88;8441703;28;20046;-82
2022/07/27 09:59:30;;;;;;;12.68;4.20;;;;;;;21.63;59.75;99331.69;8448891;28;20042;-80
2022/07/27 10:03:31;;;;;;;6.72;3.35;;;;;;;21.65;58.08;99334.84;8462458;27;20052;-81
2022/07/27 10:07:33;;;;;;;7.40;2.50;;;;;;;21.85;55.88;99334.28;8435020;28;20047;-81
2022/07/27 10:11:35;;;;;;;7.15;2.72;;;;;;;21.93;54.34;99346.16;8445346;27;20089;-80
2022/07/27 10:15:39;;;;;;;5.82;2.67;;;;;;;21.70;55.69;99348.25;8423462;28;20492;-80
2022/07/27 10:19:45;;;;;;;10.32;2.90;;;;;;;21.72;56.16;99332.19;8427222;28;20131;-81
2022/07/27 10:24:07;;;;;;;12.32;2.90;;;;;;;21.68;56.78;99345.88;8438101;28;20044;-81
2022/07/27 10:28:16;;;;;;;13.55;2.83;;;;;;;21.65;56.30;99334.84;8439391;28;20510;-81
2022/07/27 10:32:31;;;;;;;6.72;2.25;;;;;;;21.58;56.52;99340.28;8437230;28;20105;-81
2022/07/27 10:36:32;;;;;;;10.35;2.60;;;;;;;21.62;56.37;99335.63;8413748;28;20129;-82
2022/07/27 10:40:33;;;;;;;9.55;2.33;;;;;;;21.63;56.01;99337.19;8440191;28;20048;-82
2022/07/27 10:44:34;;;;;;;6.20;2.55;;;;;;;21.71;56.12;99338.84;8429815;28;20040;-81
2022/07/27 10:48:41;;;;;;;8.40;1.88;;;;;;;21.66;54.34;99352.94;8423838;28;20108;-81
2022/07/27 10:52:47;;;;;;;5.90;1.90;;;;;;;21.69;53.79;99346.69;8435345;28;20477;-81
2022/07/27 10:56:49;;;;;;;6.88;2.08;;;;;;;22.11;54.43;99330.63;8429864;28;20055;-81
2022/07/27 11:00:50;;;;;;;7.88;2.47;;;;;;;22.59;52.16;99344.34;8466187;27;20043;-80
2022/07/27 11:04:55;;;;;;;10.05;1.70;;;;;;;22.58;50.94;99340.00;8453902;28;20039;-80
2022/07/27 11:08:58;;;;;;;6.90;1.60;;;;;;;22.31;50.49;99334.72;8408586;28;20050;-82
2022/07/27 11:12:59;;;;;;;6.45;1.55;;;;;;;22.38;48.71;99344.19;8461366;28;20065;-80
2022/07/27 11:17:04;;;;;;;8.75;1.77;;;;;;;22.61;48.23;99331.00;8461539;28;20052;-80
2022/07/27 11:21:17;;;;;;;6.07;1.70;;;;;;;22.85;48.62;99341.41;8445885;28;20036;-80
2022/07/27 11:25:18;;;;;;;8.15;1.70;;;;;;;22.62;48.62;99343.59;8441274;28;20052;-80
2022/07/27 11:29:21;;;;;;;7.03;1.70;;;;;;;22.37;50.27;99359.13;8458576;28;20044;-81
2022/07/27 11:33:22;;;;;;;8.45;1.95;;;;;;;22.31;49.77;99351.22;8428875;28;20375;-82
2022/07/27 11:37:23;;;;;;;7.85;1.50;;;;;;;22.50;49.10;99352.94;8389178;28;20503;-81
2022/07/27 11:41:30;;;;;;;13.30;1.67;;;;;;;22.65;48.57;99348.31;8440916;28;20040;-81
2022/07/27 11:45:32;;;;;;;9.20;2.00;;;;;;;22.60;48.47;99351.44;8433540;28;20131;-82
2022/07/27 11:49:34;;;;;;;5.43;1.20;;;;;;;22.49;48.83;99358.81;8450391;28;20188;-82
2022/07/27 11:53:36;;;;;;;6.70;1.77;;;;;;;22.51;47.54;99353.75;8440312;28;20048;-82
2022/07/27 11:57:37;;;;;;;12.63;1.73;;;;;;;22.55;47.76;99354.56;8445048;28;20124;-82
2022/07/27 12:01:50;;;;;;;7.65;1.50;;;;;;;22.71;47.86;99352.34;8387498;28;20044;-80
2022/07/27 12:06:00;;;;;;;10.45;1.45;;;;;;;22.61;47.10;99353.03;8434294;28;20046;-81
2022/07/27 12:10:03;;;;;;;7.38;1.80;;;;;;;22.38;47.13;99355.19;8415152;28;20529;-82
2022/07/27 12:14:11;;;;;;;9.38;1.55;;;;;;;22.25;47.08;99352.75;8436258;28;20480;-81
2022/07/27 12:18:12;;;;;;;10.20;1.90;;;;;;;22.18;47.97;99362.91;8439704;28;20487;-81
2022/07/27 12:22:22;;;;;;;6.35;1.60;;;;;;;22.10;48.52;99356.53;8438338;28;20557;-81
2022/07/27 12:26:26;;;;;;;7.93;1.83;;;;;;;21.98;47.94;99354.09;8414882;28;20039;-79
2022/07/27 12:30:45;;;;;;;8.93;1.30;;;;;;;21.90;46.04;99363.38;8429276;28;20048;-79
2022/07/27 12:34:46;;;;;;;;;;;;;;;21.78;47.00;99352.69;8433017;28;20046;-79
2022/07/27 12:38:49;;;;;;;8.70;1.35;;;;;;;21.81;47.12;99343.66;8437634;28;19920;-79
2022/07/27 12:43:04;;;;;;;4.53;1.13;;;;;;;21.83;47.42;99346.84;8438557;28;20422;-79
2022/07/27 12:51:26;;;;;;;5.10;1.70;;;;;;;21.73;46.83;99342.78;8443513;27;20395;-80
2022/07/27 12:55:27;;;;;;;7.35;1.20;;;;;;;21.63;45.32;99342.69;8449141;28;20134;-81
2022/07/27 12:59:29;;;;;;;4.32;1.10;;;;;;;21.57;46.79;99333.22;8452259;28;20720;-81
2022/07/27 13:03:29;;;;;;;5.22;1.30;;;;;;;21.60;46.82;99337.94;8450224;28;20359;-80
2022/07/27 13:07:31;;;;;;;3.25;1.23;;;;;;;21.53;46.82;99346.09;8455387;28;20063;-83
2022/07/27 13:11:31;;;;;;;7.53;1.25;;;;;;;21.45;47.16;99343.28;8454417;27;20052;-80
2022/07/27 13:15:33;;;;;;;5.05;1.60;;;;;;;21.46;47.26;99344.88;8431729;28;20071;-84
2022/07/27 13:19:34;;;;;;;5.30;1.35;;;;;;;21.40;48.05;99354.63;8444396;28;20071;-79
2022/07/27 13:23:35;;;;;;;6.03;1.10;;;;;;;21.17;49.46;99353.94;8444365;28;20040;-79
2022/07/27 13:27:37;;;;;;;8.80;1.48;;;;;;;20.89;50.49;99364.50;8444016;28;20474;-79
2022/07/27 13:31:38;;;;;;;6.38;1.30;;;;;;;20.64;51.52;99375.91;8413738;28;20112;-80
2022/07/27 13:35:38;;;;;;;17.25;1.73;;;;;;;20.30;53.41;99387.88;8404403;28;20757;-80
2022/07/27 13:39:40;;;;;;;5.03;1.42;;;;;;;20.11;54.44;99394.19;8430003;28;20089;-80
2022/07/27 13:43:40;;;;;;;9.10;1.40;;;;;;;19.97;55.31;99390.41;8452523;28;20407;-80
2022/07/27 13:47:42;;;;;;;3.78;1.30;;;;;;;19.87;55.40;99385.53;8397990;28;20047;-77
2022/07/27 13:51:43;;;;;;;9.65;1.42;;;;;;;19.78;55.86;99378.31;8447185;28;20052;-80
2022/07/27 13:55:44;;;;;;;10.38;1.45;;;;;;;19.67;55.22;99374.59;8429098;28;20435;-80
2022/07/27 13:59:46;;;;;;;5.15;1.85;;;;;;;19.60;56.71;99377.22;8385992;28;20048;-81
2022/07/27 14:03:47;;;;;;;6.03;1.35;;;;;;;19.51;58.39;99373.88;8454172;28;20069;-81
2022/07/27 14:07:48;;;;;;;5.05;1.30;;;;;;;19.38;60.01;99364.22;8434077;28;20071;-81
2022/07/27 14:11:49;;;;;;;7.68;1.40;;;;;;;19.36;61.21;99361.03;8447981;28;20505;-81
2022/07/27 14:15:50;;;;;;;6.43;1.20;;;;;;;19.25;61.37;99357.28;8435371;28;20042;-81
2022/07/27 14:19:51;;;;;;;6.85;1.20;;;;;;;19.13;62.26;99351.97;8401951;28;20051;-80
2022/07/27 14:23:52;;;;;;;8.70;1.88;;;;;;;19.05;63.63;99372.91;8438490;28;21164;-80
2022/07/27 14:27:53;;;;;;;5.35;1.80;;;;;;;18.99;64.65;99388.00;8436955;28;20044;-80
2022/07/27 14:31:54;;;;;;;4.72;1.35;;;;;;;18.85;64.61;99391.25;8399959;28;20457;-80
2022/07/27 14:35:56;;;;;;;6.32;1.40;;;;;;;18.80;64.19;99383.31;8452653;27;20035;-80
2022/07/27 14:39:57;;;;;;;4.22;1.50;;;;;;;18.84;64.22;99391.59;8412775;27;20118;-80
2022/07/27 14:43:58;;;;;;;5.30;1.50;;;;;;;18.76;64.13;99390.66;8443242;28;20399;-81
2022/07/27 14:47:59;;;;;;;9.75;1.60;;;;;;;18.72;64.36;99397.94;8452490;28;20048;-80
2022/07/27 14:52:00;;;;;;;5.75;1.30;;;;;;;18.61;64.86;99391.47;8438033;28;20124;-82
2022/07/27 14:56:01;;;;;;;8.57;1.70;;;;;;;18.45;65.21;99394.16;8451691;28;20050;-82
2022/07/27 15:00:09;;;;;;;7.22;2.00;;;;;;;18.41;65.51;99392.50;8450385;28;20048;-82
2022/07/27 15:04:10;;;;;;;4.85;1.90;;;;;;;18.33;65.71;99396.19;8429540;28;20119;-80
2022/07/27 15:08:11;;;;;;;13.18;2.10;;;;;;;18.32;66.16;99389.94;8448733;27;20051;-80
2022/07/27 15:12:11;;;;;;;6.40;2.17;;;;;;;18.26;66.33;99374.16;8420627;28;20058;-80
2022/07/27 15:16:12;;;;;;;5.80;1.98;;;;;;;18.22;67.23;99368.59;8424301;27;20035;-79
2022/07/27 15:20:13;;;;;;;11.10;2.30;;;;;;;18.10;68.01;99372.22;8393233;28;20543;-77
2022/07/27 15:24:15;;;;;;;10.77;2.30;;;;;;;18.06;68.90;99370.53;8429613;28;20051;-79
2022/07/27 15:28:18;;;;;;;8.60;2.10;;;;;;;18.06;69.38;99360.41;8445567;28;20071;-80
2022/07/27 15:32:20;;;;;;;6.25;2.17;;;;;;;18.00;69.65;99361.81;8411705;28;20138;-80
2022/07/27 15:36:21;;;;;;;9.20;2.03;;;;;;;17.91;69.57;99358.44;8443531;28;20047;-81
2022/07/27 15:40:38;;;;;;;7.15;1.60;;;;;;;17.76;69.41;99367.41;8436577;28;20050;-77
2022/07/27 15:44:40;;;;;;;5.28;1.70;;;;;;;17.70;69.91;99358.69;8433275;28;20048;-80
2022/07/27 15:48:41;;;;;;;7.43;1.90;;;;;;;17.63;70.04;99349.50;8441702;28;20055;-80
2022/07/27 15:52:42;;;;;;;6.35;1.80;;;;;;;17.50;71.17;99359.63;8423589;28;20061;-81
2022/07/27 15:56:43;;;;;;;6.90;1.75;;;;;;;17.42;71.46;99362.53;8439511;28;20054;-81
2022/07/27 16:00:50;;;;;;;7.40;1.88;;;;;;;17.13;72.09;99356.25;8453685;28;20505;-81
2022/07/27 16:04:52;;;;;;;5.00;1.80;;;;;;;17.06;72.35;99350.59;8440087;28;20423;-81
2022/07/27 16:08:53;;;;;;;7.05;2.08;;;;;;;17.05;72.63;99359.13;8416827;28;20054;-81
2022/07/27 16:12:55;;;;;;;6.53;1.90;;;;;;;16.92;72.98;99355.63;8396108;28;20131;-80
2022/07/27 16:16:56;;;;;;;6.65;2.05;;;;;;;16.92;73.22;99350.16;8452596;28;20504;-82
2022/07/27 16:20:57;;;;;;;5.50;1.92;;;;;;;16.83;74.22;99341.34;8449886;28;20065;-81
2022/07/27 16:24:58;;;;;;;8.40;2.15;;;;;;;16.75;74.56;99345.78;8448649;28;20419;-82
2022/07/27 16:29:01;;;;;;;6.90;2.00;;;;;;;16.70;74.57;99331.59;8440740;28;20391;-80
2022/07/27 16:33:02;;;;;;;5.35;1.52;;;;;;;16.70;73.59;99342.50;8453525;28;20071;-82
2022/07/27 16:37:03;;;;;;;5.80;1.77;;;;;;;16.68;73.87;99339.31;8441689;28;20488;-80
2022/07/27 16:41:08;;;;;;;9.38;1.92;;;;;;;16.81;74.11;99332.72;8442926;28;20054;-81
2022/07/27 16:45:09;;;;;;;3.33;1.58;;;;;;;16.91;73.53;99326.78;8379295;28;20123;-82
2022/07/27 16:49:11;;;;;;;7.47;1.75;;;;;;;16.91;73.08;99315.88;8438352;28;20063;-82
2022/07/27 16:53:13;;;;;;;4.63;1.90;;;;;;;16.97;72.51;99321.88;8435588;28;20055;-80
2022/07/27 16:57:13;;;;;;;4.07;1.60;;;;;;;17.05;72.18;99316.28;8445985;28;20063;-83
2022/07/27 17:01:14;;;;;;;6.47;2.00;;;;;;;17.23;72.16;99306.66;8410420;28;20130;-82
2022/07/27 17:05:15;;;;;;;6.55;1.88;;;;;;;17.31;71.60;99313.91;8448417;28;20040;-82
2022/07/27 17:09:17;;;;;;;5.25;1.60;;;;;;;17.37;71.31;99310.91;8450770;28;20047;-81
2022/07/27 17:13:18;;;;;;;8.20;1.85;;;;;;;17.40;70.67;99312.94;8449720;28;20525;-81
2022/07/27 17:17:20;;;;;;;6.00;2.08;;;;;;;17.39;70.44;99314.09;8454286;28;20036;-82
2022/07/27 17:21:21;;;;;;;5.07;2.17;;;;;;;17.28;70.73;99320.06;8418313;28;20059;-82
2022/07/27 17:25:24;;;;;;;10.38;2.85;;;;;;;17.06;71.34;99323.31;8451000;27;20040;-82
2022/07/27 17:29:25;;;;;;;10.68;2.30;;;;;;;16.89;71.86;99334.50;8446220;28;20055;-81
2022/07/27 17:33:27;;;;;;;6.68;2.03;;;;;;;16.74;72.20;99332.50;8449971;28;20036;-81
2022/07/27 17:37:30;;;;;;;7.68;2.20;;;;;;;16.67;72.18;99335.00;8452216;27;20054;-81
2022/07/27 17:41:32;;;;;;;12.13;2.63;;;;;;;16.60;71.96;99340.25;8410828;28;20189;-82
2022/07/27 17:45:32;;;;;;;8.13;2.38;;;;;;;16.52;71.64;99341.13;8435636;28;21285;-83
2022/07/27 17:49:34;;;;;;;11.00;2.53;;;;;;;16.46;71.63;99346.00;8389503;28;20573;-83
2022/07/27 17:53:35;;;;;;;8.70;1.98;;;;;;;16.37;71.81;99362.47;8458065;28;20047;-82
2022/07/27 17:57:36;;;;;;;8.30;1.92;;;;;;;16.26;71.92;99364.06;8437891;28;20056;-80
2022/07/27 18:01:38;;;;;;;6.63;2.10;;;;;;;16.14;72.47;99364.03;8445471;28;20052;-80
2022/07/27 18:05:39;;;;;;;9.00;2.30;;;;;;;16.05;72.75;99360.63;8440792;28;20047;-83
2022/07/27 18:09:40;;;;;;;10.32;2.10;;;;;;;16.01;73.01;99362.44;8449736;28;20063;-82
2022/07/27 18:13:41;;;;;;;7.40;2.40;;;;;;;15.94;73.29;99364.94;8393436;28;20055;-82
2022/07/27 18:17:42;;;;;;;4.68;2.33;;;;;;;15.84;73.60;99365.38;8436423;28;20048;-81
2022/07/27 18:21:43;;;;;;;10.10;2.50;;;;;;;15.75;74.04;99368.19;8445189;27;20052;-82
2022/07/27 18:25:45;;;;;;;5.95;2.50;;;;;;;15.73;74.32;99375.09;8448717;28;20095;-82
2022/07/27 18:29:46;;;;;;;5.70;1.88;;;;;;;15.67;74.80;99381.88;8401459;28;20473;-82
2022/07/27 18:33:49;;;;;;;7.25;2.42;;;;;;;15.58;75.03;99369.16;8440797;28;20056;-82
2022/07/27 18:37:50;;;;;;;5.78;2.20;;;;;;;15.47;75.71;99376.09;8449894;28;20511;-81
2022/07/27 18:41:51;;;;;;;4.70;2.38;;;;;;;15.35;76.14;99376.03;8443816;28;20055;-80
2022/07/27 18:45:53;;;;;;;13.63;2.70;;;;;;;15.25;76.37;99395.50;8432123;28;20044;-82
2022/07/27 18:49:53;;;;;;;7.85;2.95;;;;;;;15.13;77.07;99395.41;8387407;28;20481;-83
2022/07/27 18:53:54;;;;;;;7.35;2.70;;;;;;;14.99;77.40;99400.34;8440665;28;20059;-82
2022/07/27 18:57:56;;;;;;;9.95;3.08;;;;;;;14.85;78.23;99407.94;8452709;28;20158;-82
2022/07/27 19:01:57;;;;;;;4.50;2.38;;;;;;;14.73;78.39;99409.47;8460949;28;20518;-82
2022/07/27 19:05:58;;;;;;;8.77;2.70;;;;;;;14.64;78.85;99416.88;8461955;28;20172;-82